Aérodrome :
LOGIN :

S'inscrire | Disclaimer

   EN    FR    IT 

 










Légende :    VFR   VFR Marginal   IFR   IFR Intensif   IFR Très Intensif
Visi : 
Plafond : 
>= 8 km
>= 3000ft
5 à 8 km
1000 à 3000 ft
1500m à 5 km
500 à 1000 ft
800 à 1500m
200 à 500 ft
< 800m
< 200 ft
Symboles :   Orages  Brouillard  Fortes neiges  Fortes précipitations  Vent > 20 kt
SIGMETs :   Divers  Orages  Givrage  Turbulence  Onde Orograph.  Cendres Volcan.






- Altitude de l'aérodrome : 30 ft
- Code IATA : CFN


EIDL - Donegal

DERNIER METAR :
  • 211330Z 13021KT 9999 FEW036 07/02 Q0999

METARs EXPIRÉS :
  • 211300Z 13022KT CAVOK 07/03 Q0999
  • 211230Z 13021KT CAVOK 07/03 Q0999
  • 211200Z 14022KT 9999 FEW019 08/03 Q0999
  • 211130Z 13017KT 9999 FEW019 08/03 Q0999
  • 211100Z 13017KT 9999 FEW019 08/03 Q0999

TAF TAF EIDL
Valide du 21 à 12h jusqu'au 21 à 21h UTC


211100Z 2112/2121 13022KT 9999 FEW015 BKN045
BECMG 2113/2115 11016G27KT
BECMG 2118/2120 10012KT



MET'MAP, la Météo Aéronautique d'un coup d'oeil ! - Copyright ORBIFLY Décembre 2007 - Disclaimer

ORBIFLY MET'MAP TEAM :

Programmation & Développement : Alexandra Zaïnal
Conception & Développement : Baudouin d'Aumeries
Co-Programmation & Développement : Marc-Olivier Méhu
Soutien technique & logistique : Manuel Goepfert

Contact : metmap@orbifly.com




SOURCES & CREDITS :

   NOAA